Dougherty, Iowa
Current Conditions -  °F | °C
As of 10:53 PM on Wednesday 22 Oct 2014 (Local Time) from KMCW Reporting Station
Overcast Overcast  
Wind Chill: 53°   Ceiling: 5000
Heat Index: 53°   Visibility: 10mi
Dew Point: 43°   Wind: 7mph
Humidity: 69%   Direction: 200°SSW
Pressure: 30.14"   Gusts: NA
Location:  42.92°N, 93.04°W
Report Text: KMCW 230353Z AUTO 20006KT 10SM BKN050 BKN065 OVC100 12/06 A3014 RMK AO2 SLP207 T01170061
Loading
Personal Weather Stations






























Interactive Weather Map
Tropical Storm Tracking
New forecast layout! Learn more

10-Day Weather Forecast

Advertisements
Track Severe Weather on mobile